createdAt,value
2016-11-21T00:00:13.333Z,965.8
2016-11-21T00:01:22.026Z,965.84
2016-11-21T00:02:30.720Z,965.8
2016-11-21T00:03:39.407Z,965.79
2016-11-21T00:04:48.112Z,965.79
2016-11-21T00:05:56.836Z,965.78
2016-11-21T00:07:05.535Z,965.77
2016-11-21T00:08:14.221Z,965.72
2016-11-21T00:09:22.916Z,965.73
2016-11-21T00:10:31.606Z,965.69
2016-11-21T00:11:40.295Z,965.66
2016-11-21T00:12:48.987Z,965.63
2016-11-21T00:13:57.677Z,965.6
2016-11-21T00:15:06.366Z,965.58
2016-11-21T00:16:15.375Z,965.58
2016-11-21T00:17:24.069Z,965.56
2016-11-21T00:18:32.763Z,965.52
2016-11-21T00:19:41.452Z,965.56
2016-11-21T00:20:50.144Z,965.53
2016-11-21T00:21:58.842Z,965.54
2016-11-21T00:23:07.532Z,965.5
2016-11-21T00:24:16.219Z,965.54
2016-11-21T00:25:24.913Z,965.48
2016-11-21T00:26:33.608Z,965.45
2016-11-21T00:27:42.294Z,965.42
2016-11-21T00:28:50.991Z,965.44
2016-11-21T00:29:59.719Z,965.43
2016-11-21T00:31:08.416Z,965.42
2016-11-21T00:32:17.105Z,965.39
2016-11-21T00:33:25.795Z,965.38
2016-11-21T00:34:34.524Z,965.35
2016-11-21T00:35:43.214Z,965.33
2016-11-21T00:36:51.908Z,965.3
2016-11-21T00:38:00.596Z,965.33
2016-11-21T00:39:09.291Z,965.29
2016-11-21T00:40:17.980Z,965.21
2016-11-21T00:41:26.671Z,965.26
2016-11-21T00:42:35.376Z,965.19
2016-11-21T00:43:44.097Z,965.2
2016-11-21T00:44:52.788Z,965.13
2016-11-21T00:46:01.479Z,965.12
2016-11-21T00:47:10.175Z,965.12
2016-11-21T00:48:18.869Z,965.09
2016-11-21T00:49:27.564Z,965.07
2016-11-21T00:50:36.267Z,965.05
2016-11-21T00:51:44.960Z,965.01
2016-11-21T00:52:53.648Z,964.99
2016-11-21T00:54:02.339Z,965.03
2016-11-21T00:55:11.031Z,965
2016-11-21T00:56:19.720Z,965.01
2016-11-21T00:57:28.413Z,965.01
2016-11-21T00:58:37.114Z,965.02
2016-11-21T00:59:45.834Z,965.01
2016-11-21T01:00:54.528Z,964.98
2016-11-21T01:02:03.222Z,964.91
2016-11-21T01:03:11.959Z,964.94
2016-11-21T01:04:20.971Z,964.92
2016-11-21T01:05:29.664Z,964.99
2016-11-21T01:06:38.355Z,964.93
2016-11-21T01:07:47.046Z,964.95
2016-11-21T01:08:55.735Z,964.94
2016-11-21T01:10:04.426Z,964.91
2016-11-21T01:11:13.124Z,964.92
2016-11-21T01:12:21.813Z,964.84
2016-11-21T01:13:30.502Z,964.84
2016-11-21T01:14:39.215Z,964.88
2016-11-21T01:15:47.910Z,964.85
2016-11-21T01:16:56.612Z,964.86
2016-11-21T01:18:05.305Z,964.86
2016-11-21T01:19:13.993Z,964.88
2016-11-21T01:20:22.684Z,964.84
2016-11-21T01:21:31.372Z,964.83
2016-11-21T01:22:40.071Z,964.83
2016-11-21T01:23:48.763Z,964.84
2016-11-21T01:24:57.455Z,964.8
2016-11-21T01:26:06.143Z,964.85
2016-11-21T01:27:14.832Z,964.84
2016-11-21T01:28:23.527Z,964.81
2016-11-21T01:29:32.221Z,964.84
2016-11-21T01:30:40.916Z,964.85
2016-11-21T01:31:49.605Z,964.88
2016-11-21T01:32:58.291Z,964.85
2016-11-21T01:34:06.982Z,964.84
2016-11-21T01:35:15.672Z,964.84
2016-11-21T01:36:24.362Z,964.87
2016-11-21T01:37:33.057Z,964.88
2016-11-21T01:38:41.749Z,964.88
2016-11-21T01:39:50.440Z,964.87
2016-11-21T01:40:59.128Z,964.87
2016-11-21T01:42:07.819Z,964.8
2016-11-21T01:43:16.510Z,964.79
2016-11-21T01:44:25.201Z,964.71
2016-11-21T01:45:33.889Z,964.7
2016-11-21T01:46:42.589Z,964.65
2016-11-21T01:47:51.278Z,964.61
2016-11-21T01:48:59.973Z,964.66
2016-11-21T01:50:08.664Z,964.67
2016-11-21T01:51:17.694Z,964.7
2016-11-21T01:52:26.387Z,964.74
2016-11-21T01:53:35.077Z,964.72
2016-11-21T01:54:43.768Z,964.7
2016-11-21T01:55:52.458Z,964.71
2016-11-21T01:57:01.179Z,964.68
2016-11-21T01:58:10.180Z,964.68
2016-11-21T01:59:18.866Z,964.64
2016-11-21T02:00:27.564Z,964.67
2016-11-21T02:01:36.252Z,964.62
2016-11-21T02:02:44.949Z,964.59
2016-11-21T02:03:53.638Z,964.6
2016-11-21T02:05:02.331Z,964.56
2016-11-21T02:06:11.022Z,964.55
2016-11-21T02:07:19.714Z,964.51
2016-11-21T02:08:28.414Z,964.48
2016-11-21T02:09:37.101Z,964.43
2016-11-21T02:10:45.789Z,964.41
2016-11-21T02:11:54.482Z,964.41
2016-11-21T02:13:03.177Z,964.37
2016-11-21T02:14:11.866Z,964.35
2016-11-21T02:15:20.559Z,964.33
2016-11-21T02:16:29.244Z,964.32
2016-11-21T02:17:37.936Z,964.29
2016-11-21T02:18:46.647Z,964.3
2016-11-21T02:19:55.402Z,964.31
2016-11-21T02:21:04.101Z,964.31
2016-11-21T02:22:12.790Z,964.29
2016-11-21T02:23:21.482Z,964.26
2016-11-21T02:24:30.172Z,964.29
2016-11-21T02:25:38.866Z,964.31
2016-11-21T02:26:47.557Z,964.28
2016-11-21T02:27:56.247Z,964.31
2016-11-21T02:29:04.938Z,964.28
2016-11-21T02:30:13.634Z,964.32
2016-11-21T02:31:22.322Z,964.31
2016-11-21T02:32:31.009Z,964.34
2016-11-21T02:33:39.702Z,964.32
2016-11-21T02:34:48.395Z,964.37
2016-11-21T02:35:57.081Z,964.42
2016-11-21T02:37:05.768Z,964.41
2016-11-21T02:38:14.462Z,964.38
2016-11-21T02:39:23.163Z,964.39
2016-11-21T02:40:31.877Z,964.36
2016-11-21T02:41:40.566Z,964.32
2016-11-21T02:42:49.259Z,964.29
2016-11-21T02:43:57.960Z,964.27
2016-11-21T02:45:06.653Z,964.23
2016-11-21T02:46:15.359Z,964.19
2016-11-21T02:47:24.405Z,964.13
2016-11-21T02:48:33.096Z,964.09
2016-11-21T02:49:41.787Z,964.11
2016-11-21T02:50:50.512Z,964.14
2016-11-21T02:51:59.211Z,964.17
2016-11-21T02:53:07.908Z,964.23
2016-11-21T02:54:16.597Z,964.26
2016-11-21T02:55:25.288Z,964.28
2016-11-21T02:56:33.986Z,964.32
2016-11-21T02:57:42.703Z,964.28
2016-11-21T02:58:51.398Z,964.3
2016-11-21T03:00:00.106Z,964.31
2016-11-21T03:01:08.797Z,964.34
2016-11-21T03:02:17.836Z,964.32
2016-11-21T03:03:26.574Z,964.33
2016-11-21T03:04:35.268Z,964.32
2016-11-21T03:05:43.998Z,964.36
2016-11-21T03:06:53.008Z,964.32
2016-11-21T03:08:01.700Z,964.32
2016-11-21T03:09:10.443Z,964.25
2016-11-21T03:10:19.134Z,964.25
2016-11-21T03:11:27.821Z,964.21
2016-11-21T03:12:36.516Z,964.17
2016-11-21T03:13:45.209Z,964.18
2016-11-21T03:14:53.908Z,964.15
2016-11-21T03:16:02.594Z,964.11
2016-11-21T03:17:11.322Z,964.12
2016-11-21T03:18:20.011Z,964.1
2016-11-21T03:19:28.712Z,964.16
2016-11-21T03:20:37.404Z,964.16
2016-11-21T03:21:46.097Z,964.14
2016-11-21T03:22:54.786Z,964.21
2016-11-21T03:24:03.479Z,964.2
2016-11-21T03:25:12.172Z,964.19
2016-11-21T03:26:20.960Z,964.23
2016-11-21T03:27:29.679Z,964.22
2016-11-21T03:28:38.695Z,964.27
2016-11-21T03:29:47.384Z,964.21
2016-11-21T03:30:56.075Z,964.24
2016-11-21T03:32:04.765Z,964.26
2016-11-21T03:33:13.451Z,964.29
2016-11-21T03:34:22.152Z,964.28
2016-11-21T03:35:30.854Z,964.26
2016-11-21T03:36:39.545Z,964.23
2016-11-21T03:37:48.232Z,964.25
2016-11-21T03:38:56.925Z,964.22
2016-11-21T03:40:05.614Z,964.26
2016-11-21T03:41:14.627Z,964.22
2016-11-21T03:42:23.321Z,964.27
2016-11-21T03:43:32.322Z,964.26
2016-11-21T03:44:41.013Z,964.27
2016-11-21T03:45:49.703Z,964.29
2016-11-21T03:46:58.395Z,964.27
2016-11-21T03:48:07.106Z,964.26
2016-11-21T03:49:15.796Z,964.28
2016-11-21T03:50:24.490Z,964.32
2016-11-21T03:51:33.180Z,964.24
2016-11-21T03:52:41.872Z,964.26
2016-11-21T03:53:50.562Z,964.27
2016-11-21T03:54:59.309Z,964.27
2016-11-21T03:56:08.000Z,964.25
2016-11-21T03:57:16.690Z,964.32
2016-11-21T03:58:25.406Z,964.31
2016-11-21T03:59:34.094Z,964.31
2016-11-21T04:00:42.787Z,964.31
2016-11-21T04:01:51.492Z,964.32
2016-11-21T04:03:00.189Z,964.32
2016-11-21T04:04:08.881Z,964.31
2016-11-21T04:05:17.570Z,964.33
2016-11-21T04:06:26.267Z,964.33
2016-11-21T04:07:34.958Z,964.28
2016-11-21T04:08:43.648Z,964.31
2016-11-21T04:09:52.343Z,964.27
2016-11-21T04:11:01.039Z,964.26
2016-11-21T04:12:09.731Z,964.25
2016-11-21T04:13:18.424Z,964.23
2016-11-21T04:14:27.115Z,964.28
2016-11-21T04:15:35.801Z,964.28
2016-11-21T04:16:44.497Z,964.22
2016-11-21T04:17:53.193Z,964.23
2016-11-21T04:19:01.885Z,964.19
2016-11-21T04:20:10.576Z,964.18
2016-11-21T04:21:19.266Z,964.2
2016-11-21T04:22:27.963Z,964.18
2016-11-21T04:23:36.658Z,964.23
2016-11-21T04:24:45.351Z,964.26
2016-11-21T04:25:54.044Z,964.26
2016-11-21T04:27:02.732Z,964.29
2016-11-21T04:28:11.422Z,964.27
2016-11-21T04:29:20.112Z,964.27
2016-11-21T04:30:28.804Z,964.3
2016-11-21T04:31:37.494Z,964.28
2016-11-21T04:32:46.183Z,964.38
2016-11-21T04:33:54.878Z,964.35
2016-11-21T04:35:03.569Z,964.41
2016-11-21T04:36:12.255Z,964.45
2016-11-21T04:37:20.955Z,964.45
2016-11-21T04:38:29.641Z,964.47
2016-11-21T04:39:38.341Z,964.48
2016-11-21T04:40:47.032Z,964.46
2016-11-21T04:41:55.727Z,964.46
2016-11-21T04:43:04.416Z,964.51
2016-11-21T04:44:13.113Z,964.51
2016-11-21T04:45:21.800Z,964.53
2016-11-21T04:46:30.487Z,964.52
2016-11-21T04:47:39.174Z,964.52
2016-11-21T04:48:47.862Z,964.54
2016-11-21T04:49:56.550Z,964.55
2016-11-21T04:51:05.239Z,964.59
2016-11-21T04:52:13.932Z,964.6
2016-11-21T04:53:22.627Z,964.64
2016-11-21T04:54:31.314Z,964.68
2016-11-21T04:55:40.003Z,964.65
2016-11-21T04:56:48.695Z,964.64
2016-11-21T04:57:57.382Z,964.64
2016-11-21T04:59:06.071Z,964.67
2016-11-21T05:00:14.769Z,964.63
2016-11-21T05:01:23.458Z,964.66
2016-11-21T05:02:32.183Z,964.72
2016-11-21T05:03:40.871Z,964.82
2016-11-21T05:04:49.563Z,964.8
2016-11-21T05:05:58.253Z,964.82
2016-11-21T05:07:06.969Z,964.86
2016-11-21T05:08:15.663Z,964.86
2016-11-21T05:09:24.353Z,964.94
2016-11-21T05:10:33.045Z,964.92
2016-11-21T05:11:41.731Z,964.89
2016-11-21T05:12:50.422Z,964.91
2016-11-21T05:13:59.116Z,964.94
2016-11-21T05:15:07.805Z,964.92
2016-11-21T05:16:16.493Z,964.94
2016-11-21T05:17:25.184Z,965.03
2016-11-21T05:18:33.871Z,965.03
2016-11-21T05:19:42.579Z,965.08
2016-11-21T05:20:51.300Z,965.09
2016-11-21T05:21:59.991Z,965.1
2016-11-21T05:23:08.681Z,965.1
2016-11-21T05:24:17.374Z,965.12
2016-11-21T05:25:26.380Z,965.13
2016-11-21T05:26:35.073Z,965.14
2016-11-21T05:27:43.758Z,965.2
2016-11-21T05:28:52.450Z,965.16
2016-11-21T05:30:01.137Z,965.16
2016-11-21T05:31:09.851Z,965.19
2016-11-21T05:32:18.549Z,965.19
2016-11-21T05:33:27.242Z,965.2
2016-11-21T05:34:35.963Z,965.22
2016-11-21T05:35:44.670Z,965.25
2016-11-21T05:36:53.360Z,965.29
2016-11-21T05:38:02.404Z,965.28
2016-11-21T05:39:11.433Z,965.3
2016-11-21T05:40:20.125Z,965.32
2016-11-21T05:41:28.812Z,965.37
2016-11-21T05:42:37.507Z,965.36
2016-11-21T05:43:46.207Z,965.44
2016-11-21T05:44:54.899Z,965.4
2016-11-21T05:46:03.589Z,965.43
2016-11-21T05:47:12.279Z,965.47
2016-11-21T05:48:20.975Z,965.5
2016-11-21T05:49:29.663Z,965.48
2016-11-21T05:50:38.353Z,965.49
2016-11-21T05:51:47.056Z,965.48
2016-11-21T05:52:55.755Z,965.48
2016-11-21T05:54:04.447Z,965.48
2016-11-21T05:55:13.134Z,965.49
2016-11-21T05:56:21.829Z,965.52
2016-11-21T05:57:30.529Z,965.58
2016-11-21T05:58:39.223Z,965.58
2016-11-21T05:59:47.917Z,965.6
2016-11-21T06:00:56.657Z,965.61
2016-11-21T06:02:05.659Z,965.63
2016-11-21T06:03:14.351Z,965.63
2016-11-21T06:04:23.047Z,965.67
2016-11-21T06:05:31.764Z,965.67
2016-11-21T06:06:40.455Z,965.67
2016-11-21T06:07:49.146Z,965.72
2016-11-21T06:08:57.837Z,965.7
2016-11-21T06:10:06.531Z,965.69
2016-11-21T06:11:15.227Z,965.68
2016-11-21T06:12:23.922Z,965.66
2016-11-21T06:13:32.621Z,965.69
2016-11-21T06:14:41.309Z,965.65
2016-11-21T06:15:50.001Z,965.69
2016-11-21T06:16:58.690Z,965.7
2016-11-21T06:18:07.378Z,965.71
2016-11-21T06:19:16.070Z,965.73
2016-11-21T06:20:24.763Z,965.78
2016-11-21T06:21:33.459Z,965.82
2016-11-21T06:22:42.147Z,965.84
2016-11-21T06:23:50.833Z,965.88
2016-11-21T06:24:59.533Z,965.9
2016-11-21T06:26:08.239Z,965.89
2016-11-21T06:27:16.929Z,965.91
2016-11-21T06:28:25.647Z,965.96
2016-11-21T06:29:34.341Z,965.96
2016-11-21T06:30:43.345Z,966.02
2016-11-21T06:31:52.033Z,966.04
2016-11-21T06:33:01.039Z,966.04
2016-11-21T06:34:09.738Z,966.06
2016-11-21T06:35:18.472Z,966.07
2016-11-21T06:36:27.167Z,966.06
2016-11-21T06:37:35.859Z,966.04
2016-11-21T06:38:44.553Z,966.04
2016-11-21T06:39:53.241Z,966.06
2016-11-21T06:41:01.937Z,966.12
2016-11-21T06:42:10.626Z,966.14
2016-11-21T06:43:19.326Z,966.13
2016-11-21T06:44:28.013Z,966.16
2016-11-21T06:45:36.700Z,966.16
2016-11-21T06:46:45.392Z,966.16
2016-11-21T06:47:54.083Z,966.2
2016-11-21T06:49:02.779Z,966.21
2016-11-21T06:50:11.499Z,966.25
2016-11-21T06:51:20.191Z,966.32
2016-11-21T06:52:28.881Z,966.34
2016-11-21T06:53:37.571Z,966.37
2016-11-21T06:54:46.271Z,966.41
2016-11-21T06:55:54.964Z,966.37
2016-11-21T06:57:03.658Z,966.42
2016-11-21T06:58:12.349Z,966.44
2016-11-21T06:59:21.041Z,966.47
2016-11-21T07:00:29.733Z,966.5
2016-11-21T07:01:38.429Z,966.48
2016-11-21T07:02:47.120Z,966.49
2016-11-21T07:03:55.811Z,966.48
2016-11-21T07:05:04.502Z,966.52
2016-11-21T07:06:13.200Z,966.49
2016-11-21T07:07:21.897Z,966.52
2016-11-21T07:08:30.621Z,966.55
2016-11-21T07:09:39.314Z,966.54
2016-11-21T07:10:48.012Z,966.62
2016-11-21T07:11:56.704Z,966.66
2016-11-21T07:13:05.396Z,966.67
2016-11-21T07:14:14.113Z,966.74
2016-11-21T07:15:22.805Z,966.75
2016-11-21T07:16:31.501Z,966.75
2016-11-21T07:17:40.192Z,966.79
2016-11-21T07:18:48.880Z,966.8
2016-11-21T07:19:57.578Z,966.81
2016-11-21T07:21:06.275Z,966.83
2016-11-21T07:22:14.963Z,966.83
2016-11-21T07:23:23.656Z,966.91
2016-11-21T07:24:32.343Z,966.92
2016-11-21T07:25:41.036Z,966.95
2016-11-21T07:26:49.734Z,966.98
2016-11-21T07:27:58.442Z,967.04
2016-11-21T07:29:07.134Z,967.05
2016-11-21T07:30:15.819Z,967.07
2016-11-21T07:31:24.510Z,967.1
2016-11-21T07:32:33.197Z,967.12
2016-11-21T07:33:41.888Z,967.2
2016-11-21T07:34:50.584Z,967.23
2016-11-21T07:35:59.319Z,967.29
2016-11-21T07:37:08.010Z,967.3
2016-11-21T07:38:16.703Z,967.31
2016-11-21T07:39:25.400Z,967.34
2016-11-21T07:40:34.092Z,967.33
2016-11-21T07:41:42.783Z,967.36
2016-11-21T07:42:51.476Z,967.42
2016-11-21T07:44:00.169Z,967.42
2016-11-21T07:45:09.175Z,967.47
2016-11-21T07:46:17.866Z,967.5
2016-11-21T07:47:26.558Z,967.53
2016-11-21T07:48:35.255Z,967.63
2016-11-21T07:49:43.972Z,967.65
2016-11-21T07:50:52.656Z,967.67
2016-11-21T07:52:01.342Z,967.71
2016-11-21T07:53:10.036Z,967.78
2016-11-21T07:54:19.047Z,967.79
2016-11-21T07:55:27.741Z,967.8
2016-11-21T07:56:36.433Z,967.88
2016-11-21T07:57:45.127Z,967.92
2016-11-21T07:58:53.820Z,967.93
2016-11-21T08:00:02.523Z,967.95
2016-11-21T08:01:11.216Z,967.94
2016-11-21T08:02:19.908Z,967.99
2016-11-21T08:03:28.603Z,967.98
2016-11-21T08:04:37.297Z,967.99
2016-11-21T08:05:45.988Z,968.05
2016-11-21T08:06:54.728Z,968.09
2016-11-21T08:08:03.737Z,968.14
2016-11-21T08:09:12.427Z,968.14
2016-11-21T08:10:21.115Z,968.22
2016-11-21T08:11:29.806Z,968.24
2016-11-21T08:12:38.597Z,968.25
2016-11-21T08:13:47.290Z,968.32
2016-11-21T08:14:56.000Z,968.26
2016-11-21T08:16:04.691Z,968.28
2016-11-21T08:17:13.377Z,968.29
2016-11-21T08:18:22.079Z,968.33
2016-11-21T08:19:30.775Z,968.36
2016-11-21T08:20:39.482Z,968.4
2016-11-21T08:21:48.170Z,968.46
2016-11-21T08:22:56.860Z,968.5
2016-11-21T08:24:05.551Z,968.55
2016-11-21T08:25:14.236Z,968.55
2016-11-21T08:26:22.950Z,968.58
2016-11-21T08:27:31.644Z,968.54
2016-11-21T08:28:40.365Z,968.57
2016-11-21T08:29:49.053Z,968.57
2016-11-21T08:30:57.742Z,968.61
2016-11-21T08:32:06.429Z,968.67
2016-11-21T08:33:15.154Z,968.76
2016-11-21T08:34:23.843Z,968.76
2016-11-21T08:35:32.849Z,968.8
2016-11-21T08:36:41.536Z,968.85
2016-11-21T08:37:50.222Z,968.91
2016-11-21T08:38:58.909Z,968.91
2016-11-21T08:40:07.597Z,968.96
2016-11-21T08:41:16.288Z,968.96
2016-11-21T08:42:24.979Z,969
2016-11-21T08:43:33.670Z,968.99
2016-11-21T08:44:42.362Z,969.04
2016-11-21T08:45:51.064Z,969.11
2016-11-21T08:46:59.760Z,969.18
2016-11-21T08:48:08.450Z,969.16
2016-11-21T08:49:17.151Z,969.16
2016-11-21T08:50:25.847Z,969.09
2016-11-21T08:51:34.546Z,969.11
2016-11-21T08:52:43.246Z,969.09
2016-11-21T08:53:51.935Z,969.11
2016-11-21T08:55:00.626Z,969.14
2016-11-21T08:56:09.321Z,969.16
2016-11-21T08:57:18.015Z,969.16
2016-11-21T08:58:26.722Z,969.16
2016-11-21T08:59:35.414Z,969.19
2016-11-21T09:00:44.108Z,969.23
2016-11-21T09:01:52.796Z,969.26
2016-11-21T09:03:01.514Z,969.27
2016-11-21T09:04:10.205Z,969.26
2016-11-21T09:05:18.899Z,969.23
2016-11-21T09:06:27.590Z,969.24
2016-11-21T09:07:36.287Z,969.25
2016-11-21T09:08:44.981Z,969.21
2016-11-21T09:09:53.703Z,969.28
2016-11-21T09:11:02.399Z,969.37
2016-11-21T09:12:11.090Z,969.4
2016-11-21T09:13:19.872Z,969.46
2016-11-21T09:14:28.706Z,969.55
2016-11-21T09:15:37.399Z,969.58
2016-11-21T09:16:46.090Z,969.6
2016-11-21T09:17:54.775Z,969.6
2016-11-21T09:19:03.471Z,969.7
2016-11-21T09:20:12.189Z,969.79
2016-11-21T09:21:20.952Z,969.88
2016-11-21T09:22:29.640Z,969.89
2016-11-21T09:23:38.376Z,969.95
2016-11-21T09:24:47.070Z,969.99
2016-11-21T09:25:55.778Z,969.99
2016-11-21T09:27:04.474Z,970.05
2016-11-21T09:28:13.191Z,970.07
2016-11-21T09:29:21.877Z,970.11
2016-11-21T09:30:30.575Z,970.19
2016-11-21T09:31:39.265Z,970.26
2016-11-21T09:32:47.958Z,970.28
2016-11-21T09:33:56.649Z,970.31
2016-11-21T09:35:05.649Z,970.29
2016-11-21T09:36:14.353Z,970.41
2016-11-21T09:37:23.046Z,970.5
2016-11-21T09:38:31.738Z,970.51
2016-11-21T09:39:40.431Z,970.51
2016-11-21T09:40:49.124Z,970.49
2016-11-21T09:41:57.815Z,970.55
2016-11-21T09:43:06.504Z,970.51
2016-11-21T09:44:15.195Z,970.56
2016-11-21T09:45:23.894Z,970.68
2016-11-21T09:46:32.619Z,970.69
2016-11-21T09:47:41.316Z,970.74
2016-11-21T09:48:50.006Z,970.8
2016-11-21T09:49:58.703Z,970.86
2016-11-21T09:51:07.394Z,970.93
2016-11-21T09:52:16.093Z,970.88
2016-11-21T09:53:24.781Z,970.88
2016-11-21T09:54:33.468Z,970.89
2016-11-21T09:55:42.159Z,970.85
2016-11-21T09:56:50.847Z,970.91
2016-11-21T09:57:59.538Z,970.87
2016-11-21T09:59:08.239Z,970.93
2016-11-21T10:00:16.939Z,970.95
2016-11-21T10:01:25.632Z,970.94
2016-11-21T10:02:34.350Z,970.95
2016-11-21T10:03:43.040Z,970.98
2016-11-21T10:04:51.727Z,971
2016-11-21T10:06:00.447Z,971.02
2016-11-21T10:07:09.168Z,971
2016-11-21T10:08:17.860Z,971.08
2016-11-21T10:09:26.549Z,971.15
2016-11-21T10:10:35.244Z,971.2
2016-11-21T10:11:43.936Z,971.19
2016-11-21T10:12:52.624Z,971.22
2016-11-21T10:14:01.361Z,971.25
2016-11-21T10:15:10.062Z,971.22
2016-11-21T10:16:18.753Z,971.25
2016-11-21T10:17:27.473Z,971.25
2016-11-21T10:18:36.168Z,971.25
2016-11-21T10:19:44.875Z,971.22
2016-11-21T10:20:53.569Z,971.2
2016-11-21T10:22:02.271Z,971.23
2016-11-21T10:23:10.972Z,971.22
2016-11-21T10:24:19.661Z,971.19
2016-11-21T10:25:28.353Z,971.17
2016-11-21T10:26:37.062Z,971.23
2016-11-21T10:27:45.760Z,971.26
2016-11-21T10:28:54.486Z,971.3
2016-11-21T10:30:03.179Z,971.27
2016-11-21T10:31:11.877Z,971.29
2016-11-21T10:32:20.567Z,971.37
2016-11-21T10:33:29.262Z,971.31
2016-11-21T10:34:37.967Z,971.34
2016-11-21T10:35:46.660Z,971.39
2016-11-21T10:36:55.346Z,971.48
2016-11-21T10:38:04.031Z,971.6
2016-11-21T10:39:13.039Z,971.58
2016-11-21T10:40:21.734Z,971.64
2016-11-21T10:41:30.456Z,971.63
2016-11-21T10:42:39.145Z,971.67
2016-11-21T10:43:47.833Z,971.59
2016-11-21T10:44:56.524Z,971.64
2016-11-21T10:46:05.213Z,971.68
2016-11-21T10:47:13.902Z,971.67
2016-11-21T10:48:22.629Z,971.66
2016-11-21T10:49:31.326Z,971.65
2016-11-21T10:50:40.021Z,971.64
2016-11-21T10:51:48.715Z,971.63
2016-11-21T10:52:57.405Z,971.66
2016-11-21T10:54:06.098Z,971.64
2016-11-21T10:55:14.787Z,971.67
2016-11-21T10:56:23.479Z,971.57
2016-11-21T10:57:32.507Z,971.52
2016-11-21T10:58:41.236Z,971.52
2016-11-21T10:59:50.246Z,971.54
2016-11-21T11:00:58.944Z,971.58
2016-11-21T11:02:07.638Z,971.61
2016-11-21T11:03:16.338Z,971.65
2016-11-21T11:04:25.034Z,971.63
2016-11-21T11:05:33.728Z,971.66
2016-11-21T11:06:42.417Z,971.72
2016-11-21T11:07:51.110Z,971.75
2016-11-21T11:08:59.802Z,971.77
2016-11-21T11:10:08.507Z,971.82
2016-11-21T11:11:17.199Z,971.94
2016-11-21T11:12:25.892Z,971.96
2016-11-21T11:13:34.611Z,971.95
2016-11-21T11:14:43.303Z,971.96
2016-11-21T11:15:52.003Z,971.91
2016-11-21T11:17:00.693Z,971.89
2016-11-21T11:18:09.384Z,971.87
2016-11-21T11:19:18.077Z,971.93
2016-11-21T11:20:26.775Z,971.97
2016-11-21T11:21:35.467Z,972.03
2016-11-21T11:22:44.157Z,972.05
2016-11-21T11:23:52.872Z,972.06
2016-11-21T11:25:01.571Z,972.05
2016-11-21T11:26:10.263Z,972.06
2016-11-21T11:27:19.037Z,972.07
2016-11-21T11:28:27.728Z,972.12
2016-11-21T11:29:36.442Z,972.1
2016-11-21T11:30:45.137Z,972.19
2016-11-21T11:31:53.841Z,972.25
2016-11-21T11:33:02.532Z,972.33
2016-11-21T11:34:11.226Z,972.28
2016-11-21T11:35:19.916Z,972.29
2016-11-21T11:36:28.607Z,972.3
2016-11-21T11:37:37.297Z,972.4
2016-11-21T11:38:45.984Z,972.46
2016-11-21T11:39:54.678Z,972.52
2016-11-21T11:41:03.689Z,972.53
2016-11-21T11:42:12.382Z,972.53
2016-11-21T11:43:21.464Z,972.48
2016-11-21T11:44:30.159Z,972.47
2016-11-21T11:45:38.856Z,972.57
2016-11-21T11:46:47.546Z,972.52
2016-11-21T11:47:56.240Z,972.45
2016-11-21T11:49:04.959Z,972.51
2016-11-21T11:50:13.658Z,972.54
2016-11-21T11:51:22.390Z,972.55
2016-11-21T11:52:31.091Z,972.62
2016-11-21T11:53:40.118Z,972.63
2016-11-21T11:54:48.819Z,972.69
2016-11-21T11:55:57.748Z,972.75
2016-11-21T11:57:06.443Z,972.78
2016-11-21T11:58:15.138Z,972.84
2016-11-21T11:59:23.838Z,972.78
2016-11-21T12:00:32.540Z,972.8
2016-11-21T12:01:41.235Z,972.81
2016-11-21T12:02:49.932Z,972.86
2016-11-21T12:03:58.628Z,972.81
2016-11-21T12:05:07.331Z,972.81
2016-11-21T12:06:16.035Z,972.85
2016-11-21T12:07:24.736Z,972.84
2016-11-21T12:08:33.433Z,972.83
2016-11-21T12:09:42.156Z,972.86
2016-11-21T12:10:50.855Z,972.86
2016-11-21T12:11:59.551Z,972.92
2016-11-21T12:13:08.633Z,972.93
2016-11-21T12:14:17.335Z,972.94
2016-11-21T12:15:26.378Z,972.93
2016-11-21T12:16:35.084Z,973
2016-11-21T12:17:43.811Z,973.01
2016-11-21T12:18:52.562Z,973.03
2016-11-21T12:20:01.258Z,972.98
2016-11-21T12:21:09.956Z,973.03
2016-11-21T12:22:18.648Z,972.94
2016-11-21T12:23:27.343Z,972.97
2016-11-21T12:24:36.186Z,973.01
2016-11-21T12:25:44.876Z,973.07
2016-11-21T12:26:53.601Z,973.09
2016-11-21T12:28:02.930Z,973.11
2016-11-21T12:29:11.978Z,973.19
2016-11-21T12:30:21.025Z,973.24
2016-11-21T12:31:29.724Z,973.35
2016-11-21T12:32:38.424Z,973.33
2016-11-21T12:33:47.128Z,973.31
2016-11-21T12:34:55.823Z,973.34
2016-11-21T12:36:04.525Z,973.36
2016-11-21T12:37:13.221Z,973.32
2016-11-21T12:38:21.920Z,973.38
2016-11-21T12:39:30.620Z,973.41
2016-11-21T12:40:39.324Z,973.36
2016-11-21T12:41:48.021Z,973.34
2016-11-21T12:42:56.718Z,973.37
2016-11-21T12:44:05.421Z,973.46
2016-11-21T12:45:14.117Z,973.59
2016-11-21T12:46:22.815Z,973.67
2016-11-21T12:47:31.506Z,973.73
2016-11-21T12:48:40.204Z,973.81
2016-11-21T12:49:48.916Z,973.92
2016-11-21T12:50:57.607Z,973.93
2016-11-21T12:52:06.308Z,973.92
2016-11-21T12:53:15.002Z,973.89
2016-11-21T12:54:23.704Z,973.93
2016-11-21T12:55:32.399Z,973.91
2016-11-21T12:56:41.094Z,973.89
2016-11-21T12:57:49.793Z,973.8
2016-11-21T12:58:58.490Z,973.79
2016-11-21T13:00:07.494Z,973.75
2016-11-21T13:01:16.222Z,973.74
2016-11-21T13:02:24.924Z,973.73
2016-11-21T13:03:33.620Z,973.68
2016-11-21T13:04:42.324Z,973.63
2016-11-21T13:05:51.019Z,973.69
2016-11-21T13:06:59.717Z,973.68
2016-11-21T13:08:08.417Z,973.73
2016-11-21T13:09:17.125Z,973.69
2016-11-21T13:10:26.186Z,973.69
2016-11-21T13:11:34.906Z,973.58
2016-11-21T13:12:43.601Z,973.59
2016-11-21T13:13:52.297Z,973.54
2016-11-21T13:15:00.991Z,973.59
2016-11-21T13:16:09.686Z,973.66
2016-11-21T13:17:18.382Z,973.78
2016-11-21T13:18:27.074Z,973.83
2016-11-21T13:19:35.771Z,973.85
2016-11-21T13:20:44.468Z,973.89
2016-11-21T13:21:53.160Z,973.86
2016-11-21T13:23:01.850Z,973.86
2016-11-21T13:24:10.545Z,973.9
2016-11-21T13:25:19.247Z,973.96
2016-11-21T13:26:27.945Z,973.97
2016-11-21T13:27:36.644Z,974.03
2016-11-21T13:28:45.338Z,974.05
2016-11-21T13:29:54.030Z,974.08
2016-11-21T13:31:02.727Z,974.13
2016-11-21T13:32:11.432Z,974.12
2016-11-21T13:33:20.127Z,974.13
2016-11-21T13:34:28.824Z,974.16
2016-11-21T13:35:37.516Z,974.09
2016-11-21T13:36:46.207Z,974.13
2016-11-21T13:37:54.896Z,974.15
2016-11-21T13:39:03.587Z,974.15
2016-11-21T13:40:12.282Z,974.23
2016-11-21T13:41:20.973Z,974.25
2016-11-21T13:42:29.692Z,974.26
2016-11-21T13:43:38.393Z,974.3
2016-11-21T13:44:47.086Z,974.29
2016-11-21T13:45:55.777Z,974.34
2016-11-21T13:47:04.506Z,974.32
2016-11-21T13:48:13.266Z,974.38
2016-11-21T13:49:21.958Z,974.39
2016-11-21T13:50:30.656Z,974.36
2016-11-21T13:51:39.351Z,974.39
2016-11-21T13:52:48.043Z,974.42
2016-11-21T13:53:56.771Z,974.4
2016-11-21T13:55:05.465Z,974.37
2016-11-21T13:56:14.153Z,974.42
2016-11-21T13:57:22.843Z,974.43
2016-11-21T13:58:31.532Z,974.51
2016-11-21T13:59:40.226Z,974.52
2016-11-21T14:00:48.918Z,974.5
2016-11-21T14:01:57.640Z,974.59
2016-11-21T14:03:06.329Z,974.55
2016-11-21T14:04:15.059Z,974.61
2016-11-21T14:05:23.755Z,974.63
2016-11-21T14:06:32.453Z,974.65
2016-11-21T14:07:41.149Z,974.67
2016-11-21T14:08:49.841Z,974.72
2016-11-21T14:09:58.542Z,974.75
2016-11-21T14:11:07.237Z,974.8
2016-11-21T14:12:15.925Z,974.83
2016-11-21T14:13:24.667Z,974.85
2016-11-21T14:14:33.360Z,974.88
2016-11-21T14:15:42.052Z,974.88
2016-11-21T14:16:50.742Z,974.86
2016-11-21T14:17:59.434Z,974.93
2016-11-21T14:19:08.124Z,974.9